createdAt,value
2018-02-15T00:01:23.155Z,6.70
2018-02-15T00:02:54.969Z,6.60
2018-02-15T00:04:26.784Z,7.20
2018-02-15T00:05:58.597Z,10.00
2018-02-15T00:07:30.411Z,8.00
2018-02-15T00:09:02.226Z,8.10
2018-02-15T00:10:34.941Z,6.60
2018-02-15T00:12:05.854Z,6.90
2018-02-15T00:13:37.668Z,9.30
2018-02-15T00:15:09.482Z,9.00
2018-02-15T00:16:41.297Z,5.30
2018-02-15T00:18:13.112Z,5.10
2018-02-15T00:19:44.925Z,6.50
2018-02-15T00:21:16.739Z,5.50
2018-02-15T00:22:48.553Z,7.20
2018-02-15T00:24:20.821Z,5.50
2018-02-15T00:25:52.181Z,6.10
2018-02-15T00:27:23.996Z,8.30
2018-02-15T00:28:55.912Z,5.10
2018-02-15T00:30:27.623Z,5.10
2018-02-15T00:31:59.438Z,5.20
2018-02-15T00:33:31.252Z,4.00
2018-02-15T00:35:03.066Z,3.30
2018-02-15T00:36:34.880Z,2.80
2018-02-15T00:38:06.694Z,2.70
2018-02-15T00:39:38.508Z,3.40
2018-02-15T00:41:10.322Z,3.40
2018-02-15T00:42:42.136Z,2.20
2018-02-15T00:44:13.950Z,2.30
2018-02-15T00:45:45.764Z,1.70
2018-02-15T00:47:18.380Z,2.40
2018-02-15T00:48:49.393Z,2.50
2018-02-15T00:50:21.207Z,1.70
2018-02-15T00:51:53.021Z,2.70
2018-02-15T00:53:24.835Z,1.90
2018-02-15T00:54:56.649Z,1.90
2018-02-15T00:56:28.463Z,1.90
2018-02-15T00:58:00.277Z,1.60
2018-02-15T00:59:32.093Z,1.40
2018-02-15T01:01:03.905Z,1.30
2018-02-15T01:02:35.718Z,1.90
2018-02-15T01:04:07.532Z,1.10
2018-02-15T01:05:39.446Z,1.10
2018-02-15T01:07:57.158Z,1.40
2018-02-15T01:08:43.019Z,1.10
2018-02-15T01:10:14.810Z,1.10
2018-02-15T01:11:46.619Z,1.10
2018-02-15T01:13:18.414Z,2.40
2018-02-15T01:14:50.228Z,2.80
2018-02-15T01:16:22.041Z,1.70
2018-02-15T01:17:53.854Z,1.30
2018-02-15T01:19:25.668Z,1.90
2018-02-15T01:20:57.482Z,1.50
2018-02-15T01:22:29.296Z,2.20
2018-02-15T01:24:01.309Z,1.70
2018-02-15T01:25:32.922Z,1.90
2018-02-15T01:27:04.738Z,1.40
2018-02-15T01:28:36.549Z,1.10
2018-02-15T01:30:08.363Z,1.40
2018-02-15T01:31:40.176Z,1.30
2018-02-15T01:33:11.990Z,1.80
2018-02-15T01:34:43.803Z,1.60
2018-02-15T01:36:15.617Z,1.20
2018-02-15T01:37:47.430Z,1.20
2018-02-15T01:39:19.243Z,1.60
2018-02-15T01:40:51.057Z,1.20
2018-02-15T01:42:23.121Z,2.20
2018-02-15T01:43:54.684Z,1.30
2018-02-15T01:45:26.498Z,1.80
2018-02-15T01:46:58.319Z,1.30
2018-02-15T01:48:30.124Z,1.80
2018-02-15T01:50:01.939Z,2.00
2018-02-15T01:51:33.752Z,2.20
2018-02-15T01:53:05.566Z,2.00
2018-02-15T01:54:37.479Z,1.90
2018-02-15T01:56:09.192Z,2.00
2018-02-15T01:57:41.006Z,2.40
2018-02-15T01:59:12.822Z,1.50
2018-02-15T02:00:44.734Z,1.80
2018-02-15T02:02:16.447Z,2.20
2018-02-15T02:03:48.261Z,1.50
2018-02-15T02:05:20.075Z,2.60
2018-02-15T02:06:51.888Z,1.70
2018-02-15T02:08:23.706Z,1.90
2018-02-15T02:09:55.519Z,2.90
2018-02-15T02:11:27.329Z,4.50
2018-02-15T02:12:59.144Z,2.70
2018-02-15T02:14:30.956Z,3.00
2018-02-15T02:16:02.770Z,2.20
2018-02-15T02:17:34.587Z,3.40
2018-02-15T02:19:06.498Z,2.20
2018-02-15T02:20:38.211Z,3.00
2018-02-15T02:22:10.025Z,2.20
2018-02-15T02:23:41.838Z,2.30
2018-02-15T02:25:13.753Z,4.10
2018-02-15T02:26:45.465Z,1.90
2018-02-15T02:28:17.280Z,3.30
2018-02-15T02:29:49.093Z,2.70
2018-02-15T02:31:21.158Z,2.70
2018-02-15T02:32:52.722Z,3.20
2018-02-15T02:34:24.535Z,2.90
2018-02-15T02:35:56.351Z,2.90
2018-02-15T02:37:28.464Z,3.00
2018-02-15T02:38:59.976Z,2.30
2018-02-15T02:40:31.790Z,2.30
2018-02-15T02:42:03.605Z,2.70
2018-02-15T02:43:35.418Z,2.40
2018-02-15T02:45:07.231Z,2.80
2018-02-15T02:46:39.044Z,3.90
2018-02-15T02:48:10.859Z,2.90
2018-02-15T02:49:42.673Z,3.00
2018-02-15T02:51:14.487Z,2.60
2018-02-15T02:52:46.299Z,4.60
2018-02-15T02:54:18.113Z,3.70
2018-02-15T02:55:50.126Z,3.90
2018-02-15T02:57:21.741Z,3.20
2018-02-15T02:58:53.553Z,3.60
2018-02-15T03:00:25.366Z,5.30
2018-02-15T03:01:57.180Z,4.80
2018-02-15T03:03:28.993Z,3.60
2018-02-15T03:05:00.806Z,2.70
2018-02-15T03:06:32.619Z,3.30
2018-02-15T03:08:04.433Z,3.10
2018-02-15T03:09:36.246Z,3.90
2018-02-15T03:11:08.054Z,3.30
2018-02-15T03:12:39.867Z,3.50
2018-02-15T03:14:11.781Z,4.10
2018-02-15T03:15:43.494Z,3.50
2018-02-15T03:17:15.307Z,3.80
2018-02-15T03:18:47.120Z,3.30
2018-02-15T03:20:19.084Z,2.50
2018-02-15T03:21:50.747Z,3.40
2018-02-15T03:23:22.560Z,3.60
2018-02-15T03:24:54.372Z,3.80
2018-02-15T03:26:26.286Z,3.70
2018-02-15T03:27:57.999Z,4.70
2018-02-15T03:29:29.817Z,4.20
2018-02-15T03:31:01.632Z,4.30
2018-02-15T03:32:33.801Z,4.40
2018-02-15T03:34:05.257Z,4.80
2018-02-15T03:35:37.071Z,4.10
2018-02-15T03:37:08.879Z,5.40
2018-02-15T03:38:40.692Z,4.50
2018-02-15T03:40:12.506Z,3.40
2018-02-15T03:41:44.320Z,4.30
2018-02-15T03:43:16.135Z,3.40
2018-02-15T03:44:47.947Z,4.10
2018-02-15T03:46:19.760Z,3.40
2018-02-15T03:47:51.574Z,4.60
2018-02-15T03:49:23.388Z,4.60
2018-02-15T03:50:55.302Z,3.80
2018-02-15T03:52:27.015Z,4.00
2018-02-15T03:53:58.828Z,4.40
2018-02-15T03:55:30.642Z,3.80
2018-02-15T03:57:02.557Z,3.00
2018-02-15T03:58:34.269Z,2.30
2018-02-15T04:00:06.082Z,2.80
2018-02-15T04:01:37.896Z,3.00
2018-02-15T04:03:09.959Z,1.60
2018-02-15T04:04:41.522Z,1.50
2018-02-15T04:06:13.335Z,1.30
2018-02-15T04:07:45.149Z,1.60
2018-02-15T04:09:17.062Z,1.40
2018-02-15T04:10:48.775Z,2.10
2018-02-15T04:12:20.589Z,1.50
2018-02-15T04:13:52.420Z,3.90
2018-02-15T04:15:24.366Z,1.20
2018-02-15T04:16:56.030Z,1.40
2018-02-15T04:18:27.842Z,1.30
2018-02-15T04:19:59.656Z,2.30
2018-02-15T04:21:31.469Z,1.80
2018-02-15T04:23:03.286Z,1.40
2018-02-15T04:24:35.096Z,1.70
2018-02-15T04:26:06.908Z,1.80
2018-02-15T04:27:38.925Z,1.50
2018-02-15T04:29:10.535Z,1.30
2018-02-15T04:30:42.350Z,1.20
2018-02-15T04:32:14.162Z,2.40
2018-02-15T04:33:45.975Z,1.30
2018-02-15T04:35:17.788Z,1.30
2018-02-15T04:36:49.603Z,1.40
2018-02-15T04:38:21.414Z,1.30
2018-02-15T04:39:53.228Z,1.50
2018-02-15T04:41:25.041Z,1.60
2018-02-15T04:42:56.854Z,1.50
2018-02-15T04:44:28.667Z,1.30
2018-02-15T04:46:00.832Z,1.40
2018-02-15T04:47:32.293Z,1.30
2018-02-15T04:49:04.107Z,1.50
2018-02-15T04:50:35.919Z,1.80
2018-02-15T04:52:07.732Z,1.40
2018-02-15T04:53:39.546Z,1.80
2018-02-15T04:55:11.359Z,1.70
2018-02-15T04:56:43.173Z,1.60
2018-02-15T04:58:15.085Z,1.90
2018-02-15T04:59:46.797Z,1.60
2018-02-15T05:01:18.611Z,1.90
2018-02-15T05:02:50.427Z,2.30
2018-02-15T05:04:22.337Z,2.80
2018-02-15T05:05:54.048Z,2.40
2018-02-15T05:07:25.862Z,2.30
2018-02-15T05:08:57.678Z,2.30
2018-02-15T05:10:29.638Z,1.90
2018-02-15T05:12:01.300Z,2.20
2018-02-15T05:13:33.113Z,2.00
2018-02-15T05:15:04.926Z,2.40
2018-02-15T05:16:36.889Z,5.50
2018-02-15T05:18:08.551Z,3.20
2018-02-15T05:19:40.365Z,3.50
2018-02-15T05:21:12.177Z,8.50
2018-02-15T05:22:44.092Z,9.60
2018-02-15T05:24:15.804Z,14.40
2018-02-15T05:25:47.619Z,12.80
2018-02-15T05:27:19.430Z,15.40
2018-02-15T05:28:51.344Z,17.20
2018-02-15T05:30:23.056Z,16.20
2018-02-15T05:31:54.869Z,13.10
2018-02-15T05:33:26.682Z,10.70
2018-02-15T05:34:58.746Z,9.90
2018-02-15T05:36:30.308Z,10.70
2018-02-15T05:38:02.121Z,11.90
2018-02-15T05:39:33.934Z,11.60
2018-02-15T05:41:05.847Z,11.20
2018-02-15T05:42:37.560Z,11.10
2018-02-15T05:44:09.373Z,13.10
2018-02-15T05:45:41.186Z,13.70
2018-02-15T05:47:13.000Z,15.30
2018-02-15T05:48:44.814Z,16.50
2018-02-15T05:50:16.625Z,17.00
2018-02-15T05:51:48.438Z,18.10
2018-02-15T05:53:20.251Z,15.90
2018-02-15T05:54:52.064Z,15.50
2018-02-15T05:56:23.877Z,16.70
2018-02-15T05:57:55.690Z,17.80
2018-02-15T05:59:27.705Z,19.10
2018-02-15T06:00:59.317Z,19.80
2018-02-15T06:02:31.131Z,14.00
2018-02-15T06:04:02.971Z,16.30
2018-02-15T06:05:35.025Z,13.10
2018-02-15T06:07:06.571Z,13.70
2018-02-15T06:08:38.385Z,16.30
2018-02-15T06:10:10.198Z,13.70
2018-02-15T06:11:42.011Z,15.30
2018-02-15T06:13:13.824Z,12.60
2018-02-15T06:14:45.637Z,11.70
2018-02-15T06:16:17.451Z,10.80
2018-02-15T06:17:49.516Z,7.70
2018-02-15T06:19:21.078Z,8.40
2018-02-15T06:20:52.891Z,8.00
2018-02-15T06:22:24.704Z,9.40
2018-02-15T06:23:56.517Z,8.70
2018-02-15T06:25:28.330Z,8.30
2018-02-15T06:27:00.143Z,6.90
2018-02-15T06:28:31.957Z,9.10
2018-02-15T06:30:03.871Z,8.20
2018-02-15T06:31:35.584Z,9.20
2018-02-15T06:33:07.397Z,4.80
2018-02-15T06:34:39.213Z,5.00
2018-02-15T06:36:11.374Z,4.70
2018-02-15T06:37:42.836Z,6.10
2018-02-15T06:39:14.651Z,3.20
2018-02-15T06:40:46.463Z,4.60
2018-02-15T06:42:18.276Z,5.90
2018-02-15T06:43:50.090Z,5.30
2018-02-15T06:45:21.904Z,4.50
2018-02-15T06:46:53.717Z,4.50
2018-02-15T06:48:25.680Z,4.60
2018-02-15T06:49:57.343Z,4.80
2018-02-15T06:51:29.155Z,6.30
2018-02-15T06:53:00.997Z,4.90
2018-02-15T06:54:32.882Z,3.80
2018-02-15T06:56:04.598Z,4.90
2018-02-15T06:57:36.408Z,3.30
2018-02-15T06:59:08.222Z,4.30
2018-02-15T07:00:40.136Z,4.30
2018-02-15T07:02:11.848Z,4.20
2018-02-15T07:03:43.661Z,2.20
2018-02-15T07:05:15.475Z,2.70
2018-02-15T07:06:47.538Z,2.10
2018-02-15T07:08:19.103Z,2.90
2018-02-15T07:09:50.915Z,3.60
2018-02-15T07:11:22.728Z,2.80
2018-02-15T07:12:54.642Z,2.00
2018-02-15T07:14:26.355Z,2.00
2018-02-15T07:15:58.168Z,1.90
2018-02-15T07:17:29.981Z,2.40
2018-02-15T07:19:01.795Z,1.70
2018-02-15T07:20:33.639Z,2.10
2018-02-15T07:22:05.422Z,2.20
2018-02-15T07:23:37.234Z,1.80
2018-02-15T07:25:09.048Z,1.90
2018-02-15T07:26:40.867Z,2.20
2018-02-15T07:28:12.704Z,2.50
2018-02-15T07:29:44.508Z,2.10
2018-02-15T07:31:16.644Z,1.50
2018-02-15T07:32:48.114Z,2.00
2018-02-15T07:34:19.927Z,1.40
2018-02-15T07:35:51.771Z,1.40
2018-02-15T07:37:23.804Z,2.20
2018-02-15T07:38:55.367Z,1.20
2018-02-15T07:40:27.180Z,1.30
2018-02-15T07:41:58.994Z,1.20
2018-02-15T07:43:30.807Z,1.40
2018-02-15T07:45:02.620Z,2.80
2018-02-15T07:46:34.433Z,2.70
2018-02-15T07:48:06.246Z,2.50
2018-02-15T07:49:38.312Z,3.30
2018-02-15T07:51:09.874Z,2.00
2018-02-15T07:52:41.687Z,3.90
2018-02-15T07:54:13.501Z,3.90
2018-02-15T07:55:45.465Z,3.50
2018-02-15T07:57:17.128Z,3.30
2018-02-15T07:58:48.941Z,3.50
2018-02-15T08:00:20.755Z,3.90
2018-02-15T08:01:52.668Z,4.80
2018-02-15T08:03:24.382Z,2.30
2018-02-15T08:04:56.195Z,3.10
2018-02-15T08:06:28.009Z,2.90
2018-02-15T08:08:00.173Z,1.70
2018-02-15T08:09:31.635Z,2.20
2018-02-15T08:11:03.449Z,2.50
2018-02-15T08:12:35.262Z,2.20
2018-02-15T08:14:07.076Z,2.70
2018-02-15T08:15:38.894Z,3.30
2018-02-15T08:17:10.702Z,4.10
2018-02-15T08:18:42.515Z,4.50
2018-02-15T08:20:14.328Z,5.10
2018-02-15T08:21:46.141Z,5.30
2018-02-15T08:23:17.955Z,4.80
2018-02-15T08:24:49.768Z,4.80
2018-02-15T08:26:21.832Z,5.50
2018-02-15T08:27:53.394Z,6.50
2018-02-15T08:29:25.209Z,6.00
2018-02-15T08:30:57.022Z,6.40
2018-02-15T08:32:28.934Z,6.10
2018-02-15T08:34:00.647Z,6.30
2018-02-15T08:35:32.461Z,7.50
2018-02-15T08:37:04.276Z,7.70
2018-02-15T08:38:36.339Z,8.20
2018-02-15T08:40:07.902Z,9.60
2018-02-15T08:41:39.715Z,9.60
2018-02-15T08:43:11.529Z,10.70
2018-02-15T08:44:43.442Z,9.80
2018-02-15T08:46:15.156Z,11.30
2018-02-15T08:47:46.969Z,12.30
2018-02-15T08:49:18.783Z,11.90
2018-02-15T08:50:50.597Z,10.80
2018-02-15T08:52:22.410Z,9.70
2018-02-15T08:53:54.224Z,9.60
2018-02-15T08:55:26.038Z,10.90
2018-02-15T08:56:57.854Z,13.10
2018-02-15T08:58:29.665Z,14.30
2018-02-15T09:00:01.484Z,13.30
2018-02-15T09:01:33.292Z,16.50
2018-02-15T09:03:05.306Z,17.60
2018-02-15T09:04:36.920Z,16.60
2018-02-15T09:06:08.733Z,16.90
2018-02-15T09:07:40.548Z,17.30
2018-02-15T09:09:12.611Z,19.10
2018-02-15T09:10:44.174Z,18.90
2018-02-15T09:12:16.003Z,17.80
2018-02-15T09:13:47.803Z,16.90
2018-02-15T09:15:19.616Z,17.90
2018-02-15T09:16:51.430Z,17.10
2018-02-15T09:18:23.243Z,19.70
2018-02-15T09:19:55.057Z,18.80
2018-02-15T09:21:26.972Z,23.50
2018-02-15T09:22:58.685Z,19.10
2018-02-15T09:24:30.500Z,21.90
2018-02-15T09:26:02.313Z,19.90
2018-02-15T09:27:34.128Z,18.10
2018-02-15T09:29:05.942Z,19.90
2018-02-15T09:30:37.759Z,23.20
2018-02-15T09:32:09.571Z,19.70
2018-02-15T09:33:41.384Z,19.20
2018-02-15T09:35:13.198Z,22.30
2018-02-15T09:36:45.015Z,19.40
2018-02-15T09:38:16.828Z,14.10
2018-02-15T09:39:48.994Z,19.20
2018-02-15T09:41:20.457Z,14.60
2018-02-15T09:42:52.271Z,14.90
2018-02-15T09:44:24.085Z,13.40
2018-02-15T09:45:55.899Z,11.40
2018-02-15T09:47:27.713Z,13.20
2018-02-15T09:48:59.528Z,16.50
2018-02-15T09:50:31.343Z,13.20
2018-02-15T09:52:03.157Z,10.50
2018-02-15T09:53:35.002Z,11.90
2018-02-15T09:55:06.787Z,15.20
2018-02-15T09:56:38.605Z,16.10
2018-02-15T09:58:10.517Z,10.60
2018-02-15T09:59:42.257Z,12.80
2018-02-15T10:01:14.046Z,13.60
2018-02-15T10:02:45.861Z,12.00
2018-02-15T10:04:17.675Z,10.40
2018-02-15T10:05:49.549Z,8.70
2018-02-15T10:07:21.665Z,7.80
2018-02-15T10:08:53.280Z,7.70
2018-02-15T10:10:26.104Z,5.80
2018-02-15T10:11:56.759Z,7.10
2018-02-15T10:13:28.565Z,5.40
2018-02-15T10:15:00.870Z,5.00
2018-02-15T10:16:32.509Z,9.10
2018-02-15T10:18:04.063Z,6.20
2018-02-15T10:19:37.790Z,5.40
2018-02-15T10:21:07.850Z,7.00
2018-02-15T10:22:39.754Z,6.10
2018-02-15T10:24:11.469Z,6.40
2018-02-15T10:25:43.313Z,6.90
2018-02-15T10:27:14.902Z,7.90
2018-02-15T10:28:46.763Z,10.40
2018-02-15T10:30:19.133Z,7.00
2018-02-15T10:31:50.430Z,7.00
2018-02-15T10:33:22.592Z,7.60
2018-02-15T10:34:54.440Z,8.30
2018-02-15T10:36:25.893Z,7.80
2018-02-15T10:37:58.082Z,6.90
2018-02-15T10:39:29.556Z,8.00
2018-02-15T10:41:01.255Z,6.70
2018-02-15T10:42:33.072Z,7.00
2018-02-15T10:44:05.134Z,10.60
2018-02-15T10:45:36.832Z,9.80
2018-02-15T10:47:09.057Z,7.00
2018-02-15T10:48:40.347Z,9.30
2018-02-15T10:50:12.158Z,7.00
2018-02-15T10:51:43.980Z,10.40
2018-02-15T10:53:16.096Z,7.00
2018-02-15T10:54:47.617Z,8.00
2018-02-15T10:56:19.428Z,7.60
2018-02-15T10:57:51.251Z,9.00
2018-02-15T10:59:23.142Z,8.00
2018-02-15T11:00:54.884Z,8.30
2018-02-15T11:02:26.698Z,8.60
2018-02-15T11:03:58.515Z,8.90
2018-02-15T11:05:30.434Z,10.10
2018-02-15T11:07:02.204Z,7.00
2018-02-15T11:08:34.045Z,7.40
2018-02-15T11:10:05.791Z,9.60
2018-02-15T11:11:37.710Z,7.00
2018-02-15T11:13:09.459Z,7.40
2018-02-15T11:14:41.246Z,9.30
2018-02-15T11:16:13.065Z,8.70
2018-02-15T11:17:45.105Z,8.00
2018-02-15T11:19:16.701Z,8.60
2018-02-15T11:20:48.522Z,8.20
2018-02-15T11:22:20.337Z,7.10
2018-02-15T11:23:52.156Z,7.70
2018-02-15T11:25:23.973Z,9.00
2018-02-15T11:26:55.792Z,7.80
2018-02-15T11:28:27.608Z,8.60
2018-02-15T11:29:59.526Z,9.70
2018-02-15T11:31:31.307Z,7.20
2018-02-15T11:33:03.062Z,8.00
2018-02-15T11:34:34.880Z,10.30
2018-02-15T11:36:06.698Z,8.30
2018-02-15T11:37:38.517Z,6.20
2018-02-15T11:39:10.337Z,7.00
2018-02-15T11:40:42.159Z,6.80
2018-02-15T11:42:13.972Z,6.90
2018-02-15T11:43:45.793Z,5.90
2018-02-15T11:45:17.613Z,7.40
2018-02-15T11:46:49.428Z,7.40
2018-02-15T11:48:21.349Z,7.50
2018-02-15T11:49:53.071Z,8.10
2018-02-15T11:51:24.891Z,8.30
2018-02-15T11:52:56.724Z,8.40
2018-02-15T11:54:28.524Z,7.20
2018-02-15T11:56:00.342Z,8.20
2018-02-15T11:57:32.161Z,7.80
2018-02-15T11:59:03.980Z,8.10
2018-02-15T12:00:36.731Z,8.40
2018-02-15T12:02:07.616Z,9.00
2018-02-15T12:03:39.434Z,9.50
2018-02-15T12:05:11.254Z,11.20
2018-02-15T12:06:43.272Z,9.90
2018-02-15T12:12:01.372Z,13.40
2018-02-15T12:13:13.984Z,12.20
2018-02-15T12:14:45.784Z,14.50
2018-02-15T12:16:17.603Z,14.00
2018-02-15T12:17:49.421Z,12.40
2018-02-15T12:19:21.240Z,14.20
2018-02-15T12:20:53.058Z,16.10
2018-02-15T12:22:24.879Z,15.10
2018-02-15T12:23:56.964Z,15.40
2018-02-15T12:25:28.520Z,13.70
2018-02-15T12:27:00.331Z,15.70
2018-02-15T12:28:32.149Z,11.90
2018-02-15T12:30:03.968Z,13.50
2018-02-15T12:31:35.786Z,13.20
2018-02-15T12:33:07.602Z,10.50
2018-02-15T12:34:39.425Z,13.00
2018-02-15T12:36:11.337Z,11.80
2018-02-15T12:37:43.111Z,14.40
2018-02-15T12:39:14.934Z,13.60
2018-02-15T12:40:46.700Z,13.20
2018-02-15T12:42:18.621Z,13.80
2018-02-15T12:43:50.329Z,13.00
2018-02-15T12:45:22.161Z,12.80
2018-02-15T12:46:53.969Z,11.40
2018-02-15T12:48:25.786Z,13.40
2018-02-15T12:49:57.604Z,11.90
2018-02-15T12:51:29.429Z,9.30
2018-02-15T12:53:01.245Z,10.00
2018-02-15T12:54:33.073Z,9.20
2018-02-15T12:56:04.889Z,10.00
2018-02-15T12:57:36.711Z,9.40
2018-02-15T12:59:08.552Z,10.30
2018-02-15T13:00:40.456Z,10.70
2018-02-15T13:02:12.178Z,11.80
2018-02-15T13:03:44.000Z,11.30
2018-02-15T13:08:43.202Z,10.10
2018-02-15T13:10:15.026Z,9.10
2018-02-15T13:11:46.829Z,9.60
2018-02-15T13:13:18.652Z,9.20
2018-02-15T13:14:50.478Z,11.00
2018-02-15T13:16:22.451Z,10.80
2018-02-15T13:17:54.216Z,12.20
2018-02-15T13:19:25.938Z,10.30
2018-02-15T13:20:57.778Z,9.40
2018-02-15T13:22:29.576Z,9.80
2018-02-15T13:24:01.398Z,10.70
2018-02-15T13:25:33.218Z,10.90
2018-02-15T13:27:05.040Z,10.70
2018-02-15T13:32:04.140Z,10.00
2018-02-15T13:33:35.961Z,10.60
2018-02-15T13:35:08.243Z,10.10
2018-02-15T13:36:39.587Z,9.50
2018-02-15T13:38:11.408Z,10.00
2018-02-15T13:39:43.230Z,10.30
2018-02-15T13:41:15.157Z,10.70
2018-02-15T13:42:46.875Z,10.40
2018-02-15T13:44:18.692Z,9.90
2018-02-15T13:45:50.514Z,8.70
2018-02-15T13:47:22.339Z,8.30
2018-02-15T13:48:54.161Z,7.60
2018-02-15T13:50:26.105Z,7.50
2018-02-15T13:53:41.645Z,7.60
2018-02-15T13:55:13.469Z,8.50
2018-02-15T13:56:45.293Z,6.80
2018-02-15T13:58:17.163Z,6.80
2018-02-15T13:59:48.941Z,8.00
2018-02-15T14:01:20.781Z,7.70
2018-02-15T14:02:52.590Z,7.30
2018-02-15T14:04:24.411Z,7.20
2018-02-15T14:05:56.234Z,6.80
2018-02-15T14:07:28.054Z,6.90
2018-02-15T14:08:59.878Z,6.30
2018-02-15T14:10:31.951Z,6.20
2018-02-15T14:12:03.589Z,5.60
2018-02-15T14:13:35.349Z,5.30
2018-02-15T14:23:39.809Z,5.20
2018-02-15T14:25:05.329Z,2.80
2018-02-15T14:26:37.351Z,2.70
2018-02-15T14:28:08.978Z,2.40
2018-02-15T14:29:40.794Z,2.80
2018-02-15T14:31:12.646Z,3.30
2018-02-15T14:32:44.436Z,4.10
2018-02-15T14:34:16.259Z,3.50
2018-02-15T14:35:48.079Z,3.10
2018-02-15T14:37:19.901Z,3.80
2018-02-15T14:38:51.721Z,4.20
2018-02-15T14:40:23.612Z,3.80
2018-02-15T14:41:55.364Z,3.40
2018-02-15T14:43:27.185Z,4.20
2018-02-15T14:44:59.104Z,3.90
2018-02-15T14:46:30.841Z,3.60
2018-02-15T14:48:02.646Z,4.20
2018-02-15T14:49:34.466Z,3.60
2018-02-15T14:51:06.387Z,3.80
2018-02-15T14:52:38.109Z,3.10
2018-02-15T14:54:09.929Z,3.40
2018-02-15T14:55:41.750Z,3.50
2018-02-15T14:57:13.570Z,3.60
2018-02-15T14:58:45.391Z,3.60
2018-02-15T15:00:17.213Z,3.60
2018-02-15T15:01:49.038Z,3.80
2018-02-15T15:03:20.957Z,3.70
2018-02-15T15:04:52.764Z,3.50
2018-02-15T15:06:24.507Z,4.10
2018-02-15T15:07:56.389Z,4.40
2018-02-15T15:09:28.141Z,3.80
2018-02-15T15:10:59.985Z,3.80
2018-02-15T15:12:31.829Z,3.90
2018-02-15T15:14:03.610Z,3.60
2018-02-15T15:15:35.487Z,3.30
2018-02-15T15:17:07.259Z,4.00
2018-02-15T15:18:39.084Z,3.10
2018-02-15T15:20:10.908Z,3.10
2018-02-15T15:21:42.835Z,3.30
2018-02-15T15:23:14.559Z,3.30
2018-02-15T15:24:46.390Z,3.50
2018-02-15T15:26:18.207Z,3.60
2018-02-15T15:27:50.032Z,3.40
2018-02-15T15:29:21.858Z,3.90
2018-02-15T15:30:53.736Z,4.40
2018-02-15T15:32:25.507Z,4.20
2018-02-15T15:33:57.330Z,5.30
2018-02-15T15:35:29.153Z,5.30
2018-02-15T15:37:00.976Z,5.00
2018-02-15T15:38:32.800Z,5.20
2018-02-15T15:40:04.724Z,6.40
2018-02-15T15:41:36.448Z,5.60
2018-02-15T15:43:08.273Z,5.00
2018-02-15T15:44:40.359Z,5.30
2018-02-15T15:46:11.923Z,5.00
2018-02-15T15:47:43.748Z,4.60
2018-02-15T15:49:15.570Z,4.80
2018-02-15T15:50:47.424Z,5.20
2018-02-15T15:52:19.228Z,4.60
2018-02-15T15:53:51.049Z,4.70
2018-02-15T15:55:22.896Z,5.70
2018-02-15T15:56:54.701Z,5.80
2018-02-15T15:58:26.626Z,6.10
2018-02-15T15:59:58.351Z,6.00
2018-02-15T16:01:30.175Z,5.70
2018-02-15T16:03:01.998Z,6.60
2018-02-15T16:04:33.824Z,5.80
2018-02-15T16:06:05.648Z,5.00
2018-02-15T16:07:37.472Z,5.50
2018-02-15T16:09:09.297Z,5.60
2018-02-15T16:10:41.122Z,6.00
2018-02-15T16:12:12.987Z,5.20
2018-02-15T16:13:44.773Z,5.20
2018-02-15T16:15:16.598Z,4.30
2018-02-15T16:16:48.520Z,5.20
2018-02-15T16:18:20.247Z,5.40
2018-02-15T16:19:52.069Z,5.70
2018-02-15T16:21:23.990Z,4.50
2018-02-15T16:22:55.721Z,5.30
2018-02-15T16:24:27.551Z,5.00
2018-02-15T16:25:59.372Z,4.90
2018-02-15T16:28:17.173Z,5.00
2018-02-15T16:29:03.025Z,5.10
2018-02-15T16:30:34.851Z,5.20
2018-02-15T16:32:06.676Z,4.90
2018-02-15T16:33:38.602Z,4.60
2018-02-15T16:35:10.327Z,3.50
2018-02-15T16:36:42.153Z,4.00
2018-02-15T16:38:13.978Z,4.20
2018-02-15T16:39:45.803Z,3.30
2018-02-15T16:41:17.627Z,3.40
2018-02-15T16:42:49.449Z,3.10
2018-02-15T16:44:21.277Z,3.00
2018-02-15T16:45:53.097Z,2.80
2018-02-15T16:47:24.920Z,2.60
2018-02-15T16:48:56.744Z,2.50
2018-02-15T16:52:00.692Z,2.60
2018-02-15T16:53:32.736Z,3.50
2018-02-15T16:55:04.035Z,2.30
2018-02-15T16:56:35.858Z,3.60
2018-02-15T16:58:07.780Z,2.40
2018-02-15T16:59:39.689Z,2.20
2018-02-15T17:01:11.322Z,1.70
2018-02-15T17:02:43.145Z,2.00
2018-02-15T17:04:14.966Z,2.30
2018-02-15T17:05:46.787Z,2.40
2018-02-15T17:08:50.430Z,2.00
2018-02-15T17:10:22.350Z,2.00
2018-02-15T17:11:54.071Z,3.00
2018-02-15T17:13:25.985Z,2.60
2018-02-15T17:14:57.714Z,1.90
2018-02-15T17:16:29.537Z,2.90
2018-02-15T17:18:01.358Z,2.60
2018-02-15T17:19:33.178Z,1.70
2018-02-15T17:21:06.567Z,1.60
2018-02-15T17:22:36.925Z,1.50
2018-02-15T17:24:08.641Z,1.80
2018-02-15T17:25:40.684Z,1.90
2018-02-15T17:27:12.850Z,1.50
2018-02-15T17:28:44.723Z,1.60
2018-02-15T17:30:15.928Z,2.20
2018-02-15T17:31:47.748Z,1.90
2018-02-15T17:33:19.570Z,1.40
2018-02-15T17:34:51.400Z,2.30
2018-02-15T17:36:23.213Z,1.50
2018-02-15T17:37:55.067Z,1.80
2018-02-15T17:39:26.877Z,2.90
2018-02-15T17:40:58.692Z,1.70
2018-02-15T17:44:02.319Z,1.70
2018-02-15T17:45:34.142Z,3.00
2018-02-15T17:47:06.059Z,1.50
2018-02-15T17:48:37.781Z,2.10
2018-02-15T17:50:09.603Z,2.20
2018-02-15T17:53:25.125Z,1.80
2018-02-15T17:54:56.875Z,2.80
2018-02-15T17:56:28.699Z,2.00
2018-02-15T17:59:32.338Z,1.40
2018-02-15T18:01:04.159Z,1.30
2018-02-15T18:02:35.980Z,2.10
2018-02-15T18:04:07.802Z,1.80
2018-02-15T18:05:39.784Z,0.90
2018-02-15T18:08:43.350Z,1.10
2018-02-15T18:10:15.081Z,1.20
2018-02-15T18:11:47.031Z,1.50
2018-02-15T18:13:18.739Z,2.30
2018-02-15T18:31:04.746Z,1.30
2018-02-15T18:31:44.119Z,1.30
2018-02-15T18:33:15.948Z,1.50
2018-02-15T18:34:47.758Z,1.50
2018-02-15T18:36:19.579Z,1.10
2018-02-15T18:37:51.397Z,1.00
2018-02-15T18:39:23.315Z,0.90
2018-02-15T18:40:55.074Z,1.70
2018-02-15T18:56:16.597Z,1.30
2018-02-15T18:57:48.114Z,1.70
2018-02-15T18:59:19.930Z,1.60
2018-02-15T19:00:51.829Z,2.10
2018-02-15T19:02:23.496Z,1.60
2018-02-15T19:03:55.315Z,1.60
2018-02-15T19:05:27.170Z,1.50
2018-02-15T19:06:58.952Z,2.30
2018-02-15T19:08:30.772Z,2.30
2018-02-15T19:10:02.667Z,2.20
2018-02-15T19:11:34.409Z,2.70
2018-02-15T19:13:06.328Z,1.50
2018-02-15T19:14:38.045Z,2.90
2018-02-15T19:16:09.893Z,1.50
2018-02-15T19:17:41.714Z,1.40
2018-02-15T19:19:13.502Z,1.60
2018-02-15T19:20:45.320Z,1.40
2018-02-15T19:22:17.138Z,1.10
2018-02-15T19:23:48.956Z,2.40
2018-02-15T19:25:20.775Z,2.00
2018-02-15T19:26:52.593Z,1.40
2018-02-15T19:28:24.412Z,1.30
2018-02-15T19:29:56.230Z,1.70
2018-02-15T19:31:28.246Z,1.40
2018-02-15T19:32:59.865Z,1.30
2018-02-15T19:34:31.683Z,1.50
2018-02-15T19:36:03.500Z,1.50
2018-02-15T19:37:35.318Z,1.20
2018-02-15T19:39:07.135Z,1.30
2018-02-15T19:40:38.954Z,1.20
2018-02-15T19:42:10.775Z,0.90
2018-02-15T19:43:42.590Z,1.00
2018-02-15T19:45:14.406Z,1.00
2018-02-15T19:46:46.225Z,1.80
2018-02-15T19:48:18.041Z,1.30
2018-02-15T19:49:49.961Z,2.30
2018-02-15T19:51:21.699Z,1.70
2018-02-15T19:52:53.495Z,1.40
2018-02-15T19:54:25.323Z,1.10
2018-02-15T19:55:57.168Z,1.10
2018-02-15T19:58:02.181Z,1.00
2018-02-15T19:59:00.766Z,1.10
2018-02-15T20:00:32.595Z,2.30
2018-02-15T20:02:04.500Z,1.60
2018-02-15T20:03:36.216Z,1.00
2018-02-15T20:05:08.034Z,0.80
2018-02-15T20:06:39.848Z,1.90
2018-02-15T20:08:11.766Z,0.90
2018-02-15T20:09:43.482Z,1.60
2018-02-15T20:11:15.299Z,1.10
2018-02-15T20:12:47.117Z,1.00
2018-02-15T20:14:18.931Z,1.10
2018-02-15T20:15:50.751Z,1.20
2018-02-15T20:17:22.562Z,0.90
2018-02-15T20:18:54.380Z,1.30
2018-02-15T20:20:26.196Z,1.10
2018-02-15T20:32:59.254Z,2.40
2018-02-15T20:33:51.582Z,2.10
2018-02-15T20:35:23.400Z,1.30
2018-02-15T20:36:55.211Z,3.00
2018-02-15T20:38:27.028Z,1.80
2018-02-15T20:39:58.845Z,1.50
2018-02-15T20:41:30.661Z,1.30
2018-02-15T20:43:02.778Z,1.40
2018-02-15T20:44:34.293Z,2.10
2018-02-15T20:46:06.109Z,1.40
2018-02-15T20:51:08.233Z,1.10
2018-02-15T20:52:37.016Z,1.40
2018-02-15T20:54:08.831Z,1.20
2018-02-15T20:55:40.649Z,1.60
2018-02-15T20:57:12.465Z,1.60
2018-02-15T20:58:44.282Z,1.30
2018-02-15T21:00:16.198Z,1.40
2018-02-15T21:01:47.916Z,1.30
2018-02-15T21:03:19.730Z,2.60
2018-02-15T21:04:51.527Z,1.50
2018-02-15T21:06:23.444Z,1.40
2018-02-15T21:07:55.158Z,1.50
2018-02-15T21:09:26.974Z,1.50
2018-02-15T21:10:58.811Z,1.60
2018-02-15T21:12:30.611Z,2.20
2018-02-15T21:14:02.424Z,2.20
2018-02-15T21:15:34.240Z,2.70
2018-02-15T21:17:06.056Z,2.10
2018-02-15T21:18:38.124Z,3.00
2018-02-15T21:20:09.690Z,1.60
2018-02-15T21:21:41.506Z,3.10
2018-02-15T21:23:13.329Z,1.30
2018-02-15T21:24:45.188Z,2.20
2018-02-15T21:26:17.057Z,1.50
2018-02-15T21:27:48.770Z,1.50